createdAt,value
2018-12-22T00:02:22.799Z,28.12
2018-12-22T00:04:54.271Z,31.37
2018-12-22T00:07:26.982Z,25.40
2018-12-22T00:09:57.696Z,32.78
2018-12-22T00:12:28.438Z,25.75
2018-12-22T00:14:59.092Z,27.13
2018-12-22T00:17:29.691Z,26.75
2018-12-22T00:20:01.290Z,27.45
2018-12-22T00:22:35.300Z,35.40
2018-12-22T00:25:07.279Z,25.57
2018-12-22T00:27:38.873Z,28.77
2018-12-22T00:30:18.763Z,26.10
2018-12-22T00:33:17.645Z,23.42
2018-12-22T00:35:56.910Z,26.93
2018-12-22T00:38:29.070Z,28.47
2018-12-22T00:40:59.674Z,24.95
2018-12-22T00:43:31.465Z,27.22
2018-12-22T00:46:04.642Z,26.70
2018-12-22T00:48:35.433Z,24.63
2018-12-22T00:51:09.188Z,25.43
2018-12-22T00:53:40.123Z,23.95
2018-12-22T00:56:10.704Z,23.12
2018-12-22T00:58:41.354Z,26.02
2018-12-22T01:01:12.883Z,25.05
2018-12-22T01:03:43.620Z,28.07
2018-12-22T01:06:14.287Z,27.77
2018-12-22T01:08:45.067Z,22.82
2018-12-22T01:11:15.853Z,27.22
2018-12-22T01:13:46.703Z,24.65
2018-12-22T01:16:17.347Z,27.62
2018-12-22T01:18:48.092Z,32.42
2018-12-22T01:21:19.049Z,26.57
2018-12-22T01:23:49.701Z,25.62
2018-12-22T01:26:20.299Z,24.32
2018-12-22T01:28:51.068Z,27.50
2018-12-22T01:31:21.750Z,22.22
2018-12-22T01:33:52.457Z,25.65
2018-12-22T01:36:23.094Z,27.87
2018-12-22T01:38:53.738Z,24.72
2018-12-22T01:41:29.509Z,19.37
2018-12-22T01:44:07.935Z,19.52
2018-12-22T01:46:46.024Z,20.57
2018-12-22T01:49:18.518Z,22.30
2018-12-22T01:51:49.942Z,22.10
2018-12-22T01:54:22.002Z,20.43
2018-12-22T01:56:52.919Z,21.37
2018-12-22T01:59:23.538Z,18.23
2018-12-22T02:01:54.207Z,26.20
2018-12-22T02:04:28.211Z,20.57
2018-12-22T02:06:58.880Z,21.70
2018-12-22T02:09:29.470Z,21.65
2018-12-22T02:12:00.080Z,27.05
2018-12-22T02:14:35.615Z,23.85
2018-12-22T02:17:06.194Z,25.43
2018-12-22T02:19:37.233Z,23.60
2018-12-22T02:22:08.121Z,28.38
2018-12-22T02:24:40.645Z,19.37
2018-12-22T02:27:11.228Z,18.15
2018-12-22T02:29:41.879Z,20.37
2018-12-22T02:32:12.527Z,23.32
2018-12-22T02:34:43.118Z,23.12
2018-12-22T02:37:13.834Z,29.98
2018-12-22T02:39:44.443Z,23.62
2018-12-22T02:42:15.137Z,23.75
2018-12-22T02:44:45.726Z,19.85
2018-12-22T02:47:16.323Z,22.75
2018-12-22T02:49:46.909Z,26.42
2018-12-22T02:52:17.551Z,22.73
2018-12-22T02:54:48.093Z,28.52
2018-12-22T02:57:19.108Z,23.40
2018-12-22T02:59:49.651Z,28.17
2018-12-22T03:02:20.781Z,25.32
2018-12-22T03:04:51.527Z,25.97
2018-12-22T03:07:22.684Z,32.20
2018-12-22T03:09:53.514Z,45.05
2018-12-22T03:12:24.533Z,39.90
2018-12-22T03:14:55.169Z,35.25
2018-12-22T03:17:26.442Z,28.42
2018-12-22T03:19:57.125Z,28.47
2018-12-22T03:22:27.782Z,29.18
2018-12-22T03:24:58.437Z,35.35
2018-12-22T03:27:29.088Z,33.23
2018-12-22T03:29:59.668Z,32.98
2018-12-22T03:32:30.640Z,32.53
2018-12-22T03:35:02.948Z,29.25
2018-12-22T03:37:34.242Z,33.58
2018-12-22T03:40:06.202Z,34.50
2018-12-22T03:42:36.830Z,30.20
2018-12-22T03:45:07.720Z,27.73
2018-12-22T03:47:38.452Z,28.35
2018-12-22T03:50:09.043Z,29.70
2018-12-22T03:52:39.652Z,32.60
2018-12-22T03:55:10.262Z,34.48
2018-12-22T03:57:41.493Z,32.38
2018-12-22T04:00:12.246Z,32.48
2018-12-22T04:02:42.856Z,27.90
2018-12-22T04:05:13.455Z,37.17
2018-12-22T04:07:44.108Z,32.98
2018-12-22T04:10:14.719Z,38.05
2018-12-22T04:12:47.871Z,35.23
2018-12-22T04:15:19.546Z,33.85
2018-12-22T04:17:50.202Z,39.00
2018-12-22T04:20:22.761Z,40.48
2018-12-22T04:22:53.357Z,37.23
2018-12-22T04:25:24.211Z,31.23
2018-12-22T04:27:54.894Z,31.37
2018-12-22T04:30:27.407Z,38.65
2018-12-22T04:32:58.036Z,32.42
2018-12-22T04:35:29.052Z,33.80
2018-12-22T04:37:59.673Z,36.10
2018-12-22T04:40:31.033Z,35.15
2018-12-22T04:43:05.218Z,32.78
2018-12-22T04:45:35.918Z,34.88
2018-12-22T04:48:06.469Z,34.55
2018-12-22T04:50:37.723Z,33.85
2018-12-22T04:53:09.366Z,32.23
2018-12-22T04:55:40.024Z,34.40
2018-12-22T04:58:10.607Z,34.15
2018-12-22T05:00:42.105Z,31.85
2018-12-22T05:03:12.841Z,35.20
2018-12-22T05:05:43.623Z,37.93
2018-12-22T05:08:14.527Z,40.43
2018-12-22T05:10:45.234Z,36.08
2018-12-22T05:13:15.830Z,33.88
2018-12-22T05:15:46.570Z,41.95
2018-12-22T05:18:17.226Z,30.48
2018-12-22T05:20:47.807Z,35.90
2018-12-22T05:23:18.684Z,38.33
2018-12-22T05:25:49.244Z,34.20
2018-12-22T05:28:19.864Z,32.03
2018-12-22T05:30:50.501Z,34.98
2018-12-22T05:33:21.167Z,36.77
2018-12-22T05:35:53.163Z,41.02
2018-12-22T05:38:23.885Z,36.15
2018-12-22T05:40:54.459Z,37.58
2018-12-22T05:43:25.175Z,38.80
2018-12-22T05:45:56.234Z,43.65
2018-12-22T05:48:26.793Z,38.17
2018-12-22T05:50:57.839Z,36.42
2018-12-22T05:53:28.636Z,37.55
2018-12-22T05:55:59.354Z,35.78
2018-12-22T05:58:29.933Z,38.30
2018-12-22T06:01:00.618Z,34.08
2018-12-22T06:03:34.911Z,34.55
2018-12-22T06:06:05.517Z,34.53
2018-12-22T06:08:36.433Z,37.83
2018-12-22T06:11:07.170Z,31.93
2018-12-22T06:13:37.817Z,32.85
2018-12-22T06:16:08.605Z,32.15
2018-12-22T06:18:39.565Z,32.38
2018-12-22T06:21:10.763Z,34.40
2018-12-22T06:23:41.371Z,37.45
2018-12-22T06:26:12.074Z,32.60
2018-12-22T06:28:42.694Z,33.02
2018-12-22T06:31:13.599Z,30.95
2018-12-22T06:33:44.316Z,30.32
2018-12-22T06:36:14.996Z,31.17
2018-12-22T06:38:46.226Z,30.52
2018-12-22T06:41:17.568Z,35.15
2018-12-22T06:43:48.216Z,33.88
2018-12-22T06:46:25.469Z,31.20
2018-12-22T06:48:56.114Z,40.15
2018-12-22T06:51:26.713Z,37.33
2018-12-22T06:53:57.314Z,31.73
2018-12-22T06:56:27.938Z,34.33
2018-12-22T06:58:58.606Z,37.38
2018-12-22T07:01:30.294Z,31.85
2018-12-22T07:04:03.888Z,30.50
2018-12-22T07:06:34.496Z,28.42
2018-12-22T07:09:07.745Z,25.15
2018-12-22T07:11:38.348Z,32.23
2018-12-22T07:14:09.540Z,30.70
2018-12-22T07:16:40.112Z,34.60
2018-12-22T07:19:11.464Z,32.70
2018-12-22T07:21:42.060Z,34.25
2018-12-22T07:24:13.247Z,34.18
2018-12-22T07:26:43.843Z,32.60
2018-12-22T07:29:14.526Z,34.00
2018-12-22T07:31:46.192Z,34.92
2018-12-22T07:34:16.825Z,36.95
2018-12-22T07:36:47.443Z,34.43
2018-12-22T07:39:18.488Z,39.70
2018-12-22T07:41:49.142Z,38.13
2018-12-22T07:44:20.142Z,39.25
2018-12-22T07:46:50.722Z,33.83
2018-12-22T07:49:23.486Z,35.70
2018-12-22T07:51:54.162Z,46.30
2018-12-22T07:54:24.921Z,34.67
2018-12-22T07:56:56.260Z,35.88
2018-12-22T07:59:27.020Z,44.23
2018-12-22T08:01:57.772Z,52.48
2018-12-22T08:04:30.310Z,43.48
2018-12-22T08:07:01.009Z,41.25
2018-12-22T08:09:32.083Z,39.38
2018-12-22T08:12:04.683Z,41.15
2018-12-22T08:14:35.307Z,40.73
2018-12-22T08:17:05.879Z,42.13
2018-12-22T08:19:37.024Z,40.88
2018-12-22T08:22:08.651Z,38.58
2018-12-22T08:24:39.870Z,34.83
2018-12-22T08:27:10.447Z,24.60
2018-12-22T08:29:41.134Z,23.52
2018-12-22T08:32:11.717Z,24.72
2018-12-22T08:34:42.391Z,33.23
2018-12-22T08:37:13.903Z,35.15
2018-12-22T08:39:44.599Z,39.80
2018-12-22T08:42:15.294Z,35.83
2018-12-22T08:44:45.959Z,39.42
2018-12-22T08:47:16.686Z,32.85
2018-12-22T08:49:47.322Z,34.60
2018-12-22T08:52:17.973Z,41.10
2018-12-22T08:54:48.999Z,37.80
2018-12-22T08:57:19.617Z,37.05
2018-12-22T08:59:50.325Z,37.88
2018-12-22T09:02:21.023Z,33.25
2018-12-22T09:04:52.127Z,31.10
2018-12-22T09:07:22.869Z,31.07
2018-12-22T09:09:53.509Z,32.65
2018-12-22T09:12:24.376Z,30.80
2018-12-22T09:14:55.206Z,28.95
2018-12-22T09:17:25.885Z,29.72
2018-12-22T09:19:56.519Z,33.02
2018-12-22T09:22:27.847Z,29.60
2018-12-22T09:25:00.350Z,28.85
2018-12-22T09:27:34.960Z,30.80
2018-12-22T09:30:13.172Z,32.60
2018-12-22T09:32:43.845Z,29.85
2018-12-22T09:35:14.705Z,33.30
2018-12-22T09:37:45.317Z,27.55
2018-12-22T09:40:15.959Z,26.40
2018-12-22T09:42:46.579Z,22.52
2018-12-22T09:45:17.266Z,19.07
2018-12-22T09:47:48.331Z,41.05
2018-12-22T09:50:18.987Z,49.83
2018-12-22T09:52:49.567Z,39.15
2018-12-22T09:55:20.710Z,36.75
2018-12-22T09:57:51.419Z,55.70
2018-12-22T10:00:22.560Z,45.33
2018-12-22T10:02:53.162Z,29.15
2018-12-22T10:05:23.758Z,21.23
2018-12-22T10:07:54.406Z,17.37
2018-12-22T10:10:25.063Z,23.55
2018-12-22T10:12:55.691Z,23.30
2018-12-22T10:15:26.489Z,20.92
2018-12-22T10:17:57.168Z,16.75
2018-12-22T10:20:28.672Z,15.38
2018-12-22T10:22:59.512Z,13.83
2018-12-22T10:25:30.092Z,14.85
2018-12-22T10:28:00.743Z,14.87
2018-12-22T10:30:33.283Z,13.40
2018-12-22T10:33:06.756Z,16.85
2018-12-22T10:35:37.319Z,15.43
2018-12-22T10:38:23.133Z,12.78
2018-12-22T10:40:53.764Z,12.07
2018-12-22T10:43:24.451Z,13.15
2018-12-22T10:45:55.042Z,13.68
2018-12-22T10:48:25.996Z,14.20
2018-12-22T10:50:56.631Z,12.05
2018-12-22T10:53:28.020Z,10.23
2018-12-22T10:55:58.618Z,12.30
2018-12-22T10:58:29.214Z,10.95
2018-12-22T11:00:59.868Z,13.18
2018-12-22T11:03:32.096Z,14.83
2018-12-22T11:06:04.895Z,13.48
2018-12-22T11:08:35.759Z,13.48
2018-12-22T11:11:08.228Z,15.38
2018-12-22T11:13:38.758Z,12.82
2018-12-22T11:16:11.285Z,14.47
2018-12-22T11:18:41.990Z,17.02
2018-12-22T11:21:14.075Z,19.15
2018-12-22T11:23:45.087Z,16.25
2018-12-22T11:26:15.875Z,14.83
2018-12-22T11:28:46.439Z,14.50
2018-12-22T11:31:17.073Z,11.93
2018-12-22T11:33:47.653Z,12.88
2018-12-22T11:36:18.356Z,14.23
2018-12-22T11:38:48.962Z,14.45
2018-12-22T11:41:19.635Z,13.70
2018-12-22T11:43:50.243Z,19.77
2018-12-22T11:46:21.166Z,26.12
2018-12-22T11:49:56.561Z,17.17
2018-12-22T11:52:27.502Z,16.37
2018-12-22T11:54:58.082Z,15.53
2018-12-22T11:57:28.777Z,16.23
2018-12-22T11:59:59.481Z,16.62
2018-12-22T12:02:30.721Z,17.00
2018-12-22T12:05:03.744Z,16.17
2018-12-22T12:07:34.407Z,15.43
2018-12-22T12:10:10.364Z,14.58
2018-12-22T12:12:41.043Z,15.10
2018-12-22T12:15:18.166Z,12.45
2018-12-22T12:18:12.216Z,17.05
2018-12-22T12:20:42.897Z,13.10
2018-12-22T12:23:13.517Z,11.00
2018-12-22T12:25:44.119Z,10.95
2018-12-22T12:28:14.762Z,14.70
2018-12-22T12:30:45.376Z,14.85
2018-12-22T12:33:32.713Z,12.10
2018-12-22T12:36:03.368Z,11.55
2018-12-22T12:38:34.465Z,10.90
2018-12-22T12:41:05.124Z,12.18
2018-12-22T12:43:35.715Z,11.05
2018-12-22T12:46:06.586Z,11.40
2018-12-22T12:48:37.834Z,12.63
2018-12-22T12:51:08.607Z,10.30
2018-12-22T12:53:39.218Z,11.05
2018-12-22T12:56:11.197Z,13.48
2018-12-22T12:58:41.761Z,12.33
2018-12-22T13:01:12.701Z,12.25
2018-12-22T13:03:43.365Z,12.98
2018-12-22T13:06:13.997Z,14.63
2018-12-22T13:08:44.746Z,12.82
2018-12-22T13:11:15.430Z,12.18
2018-12-22T13:13:57.875Z,13.20
2018-12-22T13:16:28.519Z,13.80
2018-12-22T13:18:59.782Z,13.03
2018-12-22T13:21:31.159Z,11.00
2018-12-22T13:24:01.789Z,13.13
2018-12-22T13:26:36.802Z,11.73
2018-12-22T13:29:05.053Z,11.35
2018-12-22T13:31:35.766Z,14.43
2018-12-22T13:34:06.451Z,17.25
2018-12-22T13:36:37.121Z,12.63
2018-12-22T13:39:20.655Z,17.60
2018-12-22T13:41:51.460Z,18.70
2018-12-22T13:44:22.049Z,15.45
2018-12-22T13:46:52.701Z,21.00
2018-12-22T13:49:23.587Z,15.48
2018-12-22T13:51:54.203Z,12.80
2018-12-22T13:54:26.641Z,13.43
2018-12-22T13:56:58.116Z,14.13
2018-12-22T13:59:28.759Z,14.63
2018-12-22T14:02:03.380Z,15.08
2018-12-22T14:04:35.476Z,16.48
2018-12-22T14:07:08.279Z,12.25
2018-12-22T14:09:38.879Z,13.00
2018-12-22T14:12:09.482Z,11.95
2018-12-22T14:14:45.227Z,12.68
2018-12-22T14:17:31.475Z,12.68
2018-12-22T14:20:06.832Z,11.88
2018-12-22T14:22:37.698Z,8.83
2018-12-22T14:25:13.155Z,10.75
2018-12-22T14:27:43.739Z,7.08
2018-12-22T14:30:15.482Z,8.53
2018-12-22T14:32:46.233Z,10.65
2018-12-22T14:35:31.568Z,10.53
2018-12-22T14:38:02.232Z,8.63
2018-12-22T14:40:32.911Z,9.43
2018-12-22T14:43:04.169Z,11.10
2018-12-22T14:45:34.925Z,11.05
2018-12-22T14:48:05.746Z,9.88
2018-12-22T14:50:36.396Z,9.88
2018-12-22T14:53:07.047Z,9.13
2018-12-22T14:55:37.684Z,7.15
2018-12-22T14:58:21.132Z,6.95
2018-12-22T15:00:52.011Z,8.23
2018-12-22T15:03:23.666Z,7.55
2018-12-22T15:05:54.335Z,6.05
2018-12-22T15:08:26.091Z,6.00
2018-12-22T15:10:56.851Z,17.25
2018-12-22T15:13:27.468Z,8.98
2018-12-22T15:16:00.350Z,8.75
2018-12-22T15:18:30.944Z,5.22
2018-12-22T15:21:02.841Z,7.75
2018-12-22T15:23:33.441Z,7.45
2018-12-22T15:26:04.150Z,7.78
2018-12-22T15:28:34.796Z,10.63
2018-12-22T15:31:05.508Z,9.58
2018-12-22T15:33:36.116Z,8.65
2018-12-22T15:36:06.738Z,36.58
2018-12-22T15:38:37.627Z,31.15
2018-12-22T15:41:08.259Z,28.77
2018-12-22T15:43:38.990Z,63.20
2018-12-22T15:46:10.368Z,56.50
2018-12-22T15:48:41.100Z,30.85
2018-12-22T15:51:13.107Z,9.25
2018-12-22T15:53:43.733Z,10.20
2018-12-22T15:56:14.312Z,8.40
2018-12-22T15:58:45.203Z,57.15
2018-12-22T16:01:16.000Z,42.40
2018-12-22T16:03:48.750Z,28.42
2018-12-22T16:06:19.431Z,8.10
2018-12-22T16:08:50.031Z,11.53
2018-12-22T16:11:20.738Z,21.05
2018-12-22T16:13:51.426Z,18.73
2018-12-22T16:16:22.145Z,18.07
2018-12-22T16:18:52.912Z,9.05
2018-12-22T16:21:23.442Z,7.75
2018-12-22T16:23:54.082Z,9.33
2018-12-22T16:26:25.039Z,9.28
2018-12-22T16:29:05.495Z,8.95
2018-12-22T16:31:36.274Z,12.47
2018-12-22T16:34:08.132Z,7.37
2018-12-22T16:36:39.313Z,8.93
2018-12-22T16:39:10.229Z,11.12
2018-12-22T16:41:41.313Z,7.95
2018-12-22T16:44:15.644Z,10.93
2018-12-22T16:46:46.355Z,8.53
2018-12-22T16:49:17.083Z,8.18
2018-12-22T16:51:54.148Z,12.07
2018-12-22T16:54:41.799Z,19.52
2018-12-22T16:57:12.997Z,12.60
2018-12-22T16:59:44.628Z,14.30
2018-12-22T17:02:28.463Z,17.30
2018-12-22T17:05:02.782Z,18.42
2018-12-22T17:07:39.573Z,12.95
2018-12-22T17:10:14.343Z,16.07
2018-12-22T17:12:46.154Z,14.00
2018-12-22T17:15:22.196Z,14.87
2018-12-22T17:17:56.375Z,20.80
2018-12-22T17:20:32.962Z,18.48
2018-12-22T17:23:15.223Z,22.20
2018-12-22T17:25:52.956Z,21.52
2018-12-22T17:28:28.239Z,20.00
2018-12-22T17:30:56.377Z,20.10
2018-12-22T17:33:27.044Z,18.27
2018-12-22T17:35:58.438Z,24.87
2018-12-22T17:38:29.275Z,22.85
2018-12-22T17:41:01.150Z,31.57
2018-12-22T17:43:32.093Z,38.98
2018-12-22T17:46:02.678Z,29.25
2018-12-22T17:48:33.306Z,30.62
2018-12-22T17:51:04.764Z,26.60
2018-12-22T17:53:35.435Z,27.58
2018-12-22T17:56:06.261Z,27.42
2018-12-22T17:58:37.660Z,28.95
2018-12-22T18:01:08.266Z,25.90
2018-12-22T18:03:40.873Z,25.65
2018-12-22T18:06:12.179Z,31.68
2018-12-22T18:08:43.526Z,26.68
2018-12-22T18:11:14.156Z,33.80
2018-12-22T18:13:44.894Z,33.55
2018-12-22T18:16:15.502Z,49.25
2018-12-22T18:18:46.139Z,39.45
2018-12-22T18:21:16.832Z,42.03
2018-12-22T18:23:47.605Z,69.12
2018-12-22T18:26:19.379Z,47.35
2018-12-22T18:28:49.964Z,56.28
2018-12-22T18:31:20.566Z,55.67
2018-12-22T18:33:51.160Z,51.37
2018-12-22T18:36:23.488Z,45.25
2018-12-22T18:38:54.059Z,49.35
2018-12-22T18:41:24.657Z,40.20
2018-12-22T18:43:55.239Z,47.08
2018-12-22T18:46:26.286Z,52.83
2018-12-22T18:48:56.900Z,45.75
2018-12-22T18:51:27.633Z,57.88
2018-12-22T18:53:58.243Z,64.37
2018-12-22T18:56:35.428Z,61.28
2018-12-22T18:59:06.033Z,63.78
2018-12-22T19:01:37.354Z,61.30
2018-12-22T19:04:08.634Z,73.25
2018-12-22T19:06:39.190Z,47.80
2018-12-22T19:09:13.930Z,48.63
2018-12-22T19:11:44.567Z,60.80
2018-12-22T19:14:16.006Z,59.73
2018-12-22T19:16:46.789Z,73.92
2018-12-22T19:19:17.435Z,75.28
2018-12-22T19:21:48.549Z,82.60
2018-12-22T19:24:21.490Z,74.15
2018-12-22T19:26:52.132Z,88.22
2018-12-22T19:29:23.785Z,91.90
2018-12-22T19:31:54.654Z,94.87
2018-12-22T19:34:27.969Z,103.83
2018-12-22T19:37:00.517Z,96.08
2018-12-22T19:39:34.339Z,109.17
2018-12-22T19:42:04.963Z,137.22
2018-12-22T19:44:35.595Z,114.50
2018-12-22T19:47:06.515Z,112.60
2018-12-22T19:49:37.298Z,116.05
2018-12-22T19:52:07.919Z,89.03
2018-12-22T19:54:38.515Z,101.53
2018-12-22T19:57:09.878Z,91.40
2018-12-22T19:59:45.013Z,98.97
2018-12-22T20:02:20.575Z,174.97
2018-12-22T20:04:52.004Z,290.80
2018-12-22T20:07:26.336Z,189.07
2018-12-22T20:09:57.480Z,111.90
2018-12-22T20:12:30.115Z,112.05
2018-12-22T20:15:00.834Z,106.60
2018-12-22T20:17:31.431Z,98.05
2018-12-22T20:20:03.102Z,128.80
2018-12-22T20:22:34.746Z,111.73
2018-12-22T20:25:06.673Z,101.40
2018-12-22T20:27:40.495Z,114.42
2018-12-22T20:30:11.211Z,190.07
2018-12-22T20:32:41.942Z,141.35
2018-12-22T20:35:12.640Z,100.90
2018-12-22T20:37:43.458Z,112.80
2018-12-22T20:40:14.301Z,110.00
2018-12-22T20:42:54.263Z,109.53
2018-12-22T20:45:30.460Z,103.47
2018-12-22T20:48:01.435Z,103.05
2018-12-22T20:50:34.531Z,115.17
2018-12-22T20:53:06.329Z,113.88
2018-12-22T20:55:38.178Z,143.13
2018-12-22T20:58:19.578Z,144.95
2018-12-22T21:00:51.233Z,124.00
2018-12-22T21:03:22.359Z,110.40
2018-12-22T21:06:01.954Z,108.78
2018-12-22T21:08:32.670Z,102.97
2018-12-22T21:11:06.660Z,99.95
2018-12-22T21:13:39.090Z,117.47
2018-12-22T21:16:09.841Z,107.83
2018-12-22T21:18:40.482Z,101.45
2018-12-22T21:21:11.110Z,92.55
2018-12-22T21:23:42.807Z,84.77
2018-12-22T21:26:13.437Z,100.50
2018-12-22T21:28:44.039Z,115.80
2018-12-22T21:31:14.641Z,108.25
2018-12-22T21:33:45.352Z,106.03
2018-12-22T21:36:15.958Z,107.80
2018-12-22T21:38:46.546Z,309.95
2018-12-22T21:41:17.343Z,375.33
2018-12-22T21:43:48.570Z,424.62
2018-12-22T21:46:19.179Z,287.17
2018-12-22T21:48:49.844Z,319.03
2018-12-22T21:51:20.473Z,218.10
2018-12-22T21:53:53.370Z,253.87
2018-12-22T21:56:24.117Z,193.40
2018-12-22T21:58:58.338Z,159.27
2018-12-22T22:01:30.837Z,135.63
2018-12-22T22:04:01.474Z,107.90
2018-12-22T22:06:32.078Z,104.32
2018-12-22T22:09:02.685Z,97.40
2018-12-22T22:11:36.334Z,103.92
2018-12-22T22:14:07.017Z,96.67
2018-12-22T22:16:38.886Z,103.30
2018-12-22T22:19:10.079Z,93.17
2018-12-22T22:21:40.763Z,99.13
2018-12-22T22:24:11.442Z,90.42
2018-12-22T22:26:42.040Z,78.73
2018-12-22T22:29:14.996Z,82.63
2018-12-22T22:31:45.711Z,79.15
2018-12-22T22:34:16.308Z,81.67
2018-12-22T22:36:47.627Z,76.60
2018-12-22T22:39:18.778Z,78.63
2018-12-22T22:41:50.605Z,82.90
2018-12-22T22:44:21.301Z,84.15
2018-12-22T22:46:52.007Z,79.17
2018-12-22T22:49:23.277Z,76.67
2018-12-22T22:51:53.959Z,82.60
2018-12-22T22:54:25.190Z,77.80
2018-12-22T22:56:56.286Z,75.78
2018-12-22T22:59:26.869Z,78.57
2018-12-22T23:01:57.468Z,81.80
2018-12-22T23:04:28.055Z,78.90
2018-12-22T23:06:59.939Z,67.57
2018-12-22T23:09:30.708Z,70.13
2018-12-22T23:12:01.270Z,63.83
2018-12-22T23:14:31.903Z,66.43
2018-12-22T23:17:04.586Z,70.80
2018-12-22T23:19:35.207Z,81.77
2018-12-22T23:22:08.316Z,73.65
2018-12-22T23:25:04.064Z,73.60
2018-12-22T23:27:37.536Z,70.70
2018-12-22T23:30:10.550Z,81.13
2018-12-22T23:32:45.875Z,71.93
2018-12-22T23:35:16.659Z,70.37
2018-12-22T23:37:47.310Z,81.08
2018-12-22T23:40:18.043Z,76.07
2018-12-22T23:42:49.263Z,72.80
2018-12-22T23:45:19.875Z,69.53
2018-12-22T23:47:50.626Z,58.80
2018-12-22T23:50:21.931Z,57.93
2018-12-22T23:52:54.465Z,50.53
2018-12-22T23:55:25.163Z,47.70
2018-12-22T23:57:56.079Z,48.60
